Time;durP1;ratioP1;P1;durP2;ratioP2;P2;SDS_P1;SDS_P2;PMS_P1;PMS_P2;Temp;Humidity;BMP_temperature;BMP_pressure;BME280_temperature;BME280_humidity;BME280_pressure;Samples;Min_cycle;Max_cycle;Signal;HPM_P1;HPM_P2
2023/09/02 06:31:57;;;;;;;;;8.50;7.25;;;;;;;;5114995;27;14217;-68
2023/09/02 06:34:23;;;;;;;;;7.25;6.75;;;;;;;;5107632;28;10904;-68
2023/09/02 06:36:48;;;;;;;;;7.00;6.75;;;;;;;;5107328;28;8800;-68
2023/09/02 06:39:13;;;;;;;;;9.25;8.75;;;;;;;;5106899;28;8922;-68
2023/09/02 06:41:38;;;;;;;;;11.50;7.50;;;;;;;;5106631;28;8803;-68
2023/09/02 06:44:04;;;;;;;;;9.00;7.00;;;;;;;;5106856;28;8811;-69
2023/09/02 06:46:31;;;;;;;;;10.75;7.50;;;;;;;;5107090;28;8807;-69
2023/09/02 06:48:56;;;;;;;;;9.00;7.00;;;;;;;;5106933;28;8857;-70
2023/09/02 06:51:22;;;;;;;;;8.50;6.00;;;;;;;;5106861;28;10439;-67
2023/09/02 06:53:47;;;;;;;;;5.00;5.00;;;;;;;;5107105;28;8887;-67
2023/09/02 06:56:12;;;;;;;;;8.00;8.00;;;;;;;;5106248;28;9516;-68
2023/09/02 06:58:38;;;;;;;;;9.50;6.25;;;;;;;;5106611;28;8795;-68
2023/09/02 07:01:03;;;;;;;;;7.25;6.00;;;;;;;;5105199;28;8795;-68
2023/09/02 07:03:29;;;;;;;;;11.50;8.00;;;;;;;;5106830;28;10494;-68
2023/09/02 07:06:02;;;;;;;;;9.50;7.00;;;;;;;;5106626;28;8925;-68
2023/09/02 07:08:28;;;;;;;;;11.00;7.00;;;;;;;;5105689;28;9577;-69
2023/09/02 07:10:53;;;;;;;;;9.00;7.00;;;;;;;;5082394;28;10250;-68
2023/09/02 07:13:18;;;;;;;;;7.00;7.00;;;;;;;;5085500;28;8794;-67
2023/09/02 07:15:43;;;;;;;;;7.75;7.75;;;;;;;;5086104;28;8802;-66
2023/09/02 07:18:09;;;;;;;;;10.00;10.00;;;;;;;;5085977;28;8799;-67
2023/09/02 07:20:35;;;;;;;;;9.75;9.75;;;;;;;;5086112;28;8790;-67
2023/09/02 07:23:00;;;;;;;;;9.75;7.75;;;;;;;;5085849;28;8775;-67
2023/09/02 07:25:25;;;;;;;;;9.00;7.00;;;;;;;;5085278;28;10367;-66
2023/09/02 07:27:50;;;;;;;;;7.75;6.50;;;;;;;;5085348;28;8790;-67
2023/09/02 07:30:16;;;;;;;;;10.00;9.25;;;;;;;;5085518;28;8857;-67
2023/09/02 07:32:41;;;;;;;;;8.00;6.25;;;;;;;;5085285;28;8798;-66
2023/09/02 07:35:06;;;;;;;;;8.50;7.00;;;;;;;;5085675;28;8782;-66
2023/09/02 07:37:32;;;;;;;;;11.00;8.00;;;;;;;;5085685;28;8810;-67
2023/09/02 07:39:57;;;;;;;;;12.75;12.00;;;;;;;;5100357;28;8800;-73
2023/09/02 07:42:22;;;;;;;;;7.50;7.25;;;;;;;;5097097;28;8885;-69
2023/09/02 07:44:47;;;;;;;;;8.25;8.00;;;;;;;;5092311;28;8895;-68
2023/09/02 07:47:13;;;;;;;;;11.75;9.00;;;;;;;;5092234;28;9520;-68
2023/09/02 07:50:29;;;;;;;;;10.25;8.00;;;;;;;;5089710;27;14287;-66
2023/09/02 07:52:55;;;;;;;;;8.75;8.75;;;;;;;;5085938;28;10062;-67
2023/09/02 07:55:20;;;;;;;;;7.25;7.25;;;;;;;;5086922;28;8818;-67
2023/09/02 07:57:45;;;;;;;;;12.25;10.75;;;;;;;;5087031;28;8829;-67
2023/09/02 08:02:36;;;;;;;;;8.25;8.25;;;;;;;;5127306;27;13407;-71
2023/09/02 08:05:02;;;;;;;;;8.00;8.00;;;;;;;;5087840;28;9909;-71
2023/09/02 08:07:27;;;;;;;;;9.50;7.50;;;;;;;;5106760;28;8802;-71
2023/09/02 08:09:52;;;;;;;;;8.50;5.50;;;;;;;;5120670;27;8826;-72
2023/09/02 08:12:17;;;;;;;;;7.00;6.50;;;;;;;;5126829;27;8827;-72
2023/09/02 08:14:43;;;;;;;;;9.67;8.00;;;;;;;;5127109;27;8850;-72
2023/09/02 08:17:08;;;;;;;;;5.33;4.67;;;;;;;;5127322;27;8768;-76
2023/09/02 08:19:33;;;;;;;;;7.00;6.00;;;;;;;;5127814;27;8912;-75
2023/09/02 08:21:59;;;;;;;;;7.00;6.00;;;;;;;;5127320;27;8819;-71
2023/09/02 08:24:24;;;;;;;;;6.00;6.00;;;;;;;;5127342;27;8895;-70
2023/09/02 08:26:49;;;;;;;;;8.00;6.00;;;;;;;;5127275;27;8992;-75
2023/09/02 08:29:15;;;;;;;;;8.33;6.00;;;;;;;;5127204;27;8803;-72
2023/09/02 08:31:40;;;;;;;;;5.67;5.00;;;;;;;;5127039;27;9025;-70
2023/09/02 08:34:05;;;;;;;;;6.67;5.00;;;;;;;;5127008;27;8898;-69
2023/09/02 08:36:31;;;;;;;;;5.00;5.00;;;;;;;;5127248;27;8756;-67
2023/09/02 08:38:56;;;;;;;;;6.50;6.00;;;;;;;;5108041;27;8828;-71
2023/09/02 08:41:24;;;;;;;;;5.33;5.33;;;;;;;;5120112;27;8927;-70
2023/09/02 08:43:52;;;;;;;;;8.50;6.75;;;;;;;;5123900;27;8938;-70
2023/09/02 08:46:19;;;;;;;;;8.00;7.00;;;;;;;;5105282;27;9558;-70
2023/09/02 08:48:44;;;;;;;;;7.00;7.00;;;;;;;;5124496;27;8815;-71
2023/09/02 08:51:11;;;;;;;;;6.00;6.00;;;;;;;;5126127;27;8840;-70
2023/09/02 08:53:37;;;;;;;;;6.00;5.40;;;;;;;;5126946;27;9580;-70
2023/09/02 08:56:04;;;;;;;;;9.40;9.40;;;;;;;;5126847;27;8783;-70
2023/09/02 08:58:29;;;;;;;;;6.00;6.00;;;;;;;;5126603;27;8869;-70
2023/09/02 09:00:55;;;;;;;;;7.00;7.00;;;;;;;;5126510;27;8819;-70
2023/09/02 09:03:20;;;;;;;;;7.00;7.00;;;;;;;;5126617;27;8812;-70
2023/09/02 09:05:48;;;;;;;;;6.00;6.00;;;;;;;;5126723;27;8792;-70
2023/09/02 09:08:14;;;;;;;;;7.20;6.20;;;;;;;;5107939;27;8799;-69
2023/09/02 09:10:41;;;;;;;;;8.40;5.40;;;;;;;;5126290;27;8811;-70
2023/09/02 09:13:08;;;;;;;;;8.40;6.80;;;;;;;;5117335;28;9526;-70
2023/09/02 09:15:35;;;;;;;;;6.40;5.00;;;;;;;;5112587;28;8815;-70
2023/09/02 09:18:01;;;;;;;;;6.20;6.00;;;;;;;;5112551;28;8819;-70
2023/09/02 09:20:27;;;;;;;;;6.60;5.80;;;;;;;;5112916;28;8838;-70
2023/09/02 09:22:53;;;;;;;;;6.00;6.00;;;;;;;;5112783;28;8776;-70
2023/09/02 09:25:19;;;;;;;;;6.00;6.00;;;;;;;;5094080;28;8926;-70
2023/09/02 09:27:45;;;;;;;;;3.80;3.00;;;;;;;;5112292;28;8831;-70
2023/09/02 09:30:29;;;;;;;;;6.75;6.75;;;;;;;;5112079;28;8811;-70
2023/09/02 09:33:04;;;;;;;;;8.00;7.00;;;;;;;;5112467;28;8780;-70
2023/09/02 09:35:30;;;;;;;;;11.40;11.40;;;;;;;;5112505;28;8784;-70
2023/09/02 09:37:56;;;;;;;;;7.00;7.00;;;;;;;;5112273;28;8788;-70
2023/09/02 09:40:35;;;;;;;;;33.25;30.00;;;;;;;;5093699;28;8815;-70
2023/09/02 09:43:01;;;;;;;;;8.60;8.60;;;;;;;;5112050;28;8795;-71
2023/09/02 09:45:27;;;;;;;;;9.00;9.00;;;;;;;;5112161;28;8916;-73
2023/09/02 09:47:55;;;;;;;;;8.20;6.00;;;;;;;;5111986;28;8965;-71
2023/09/02 09:50:21;;;;;;;;;4.60;4.40;;;;;;;;5111812;28;8833;-70
2023/09/02 09:53:04;;;;;;;;;8.00;8.00;;;;;;;;5112063;28;8796;-71
2023/09/02 09:55:30;;;;;;;;;9.60;7.00;;;;;;;;5111876;28;8792;-71
2023/09/02 09:57:57;;;;;;;;;7.00;7.00;;;;;;;;5093393;28;9702;-71
2023/09/02 10:00:23;;;;;;;;;6.00;6.00;;;;;;;;5111589;28;8791;-71
2023/09/02 10:02:52;;;;;;;;;8.00;6.00;;;;;;;;5111828;28;8826;-70
2023/09/02 10:05:23;;;;;;;;;8.00;7.80;;;;;;;;5111527;28;8803;-70
2023/09/02 10:07:56;;;;;;;;;5.80;5.80;;;;;;;;5111615;28;8780;-71
2023/09/02 10:10:26;;;;;;;;;3.00;3.00;;;;;;;;5111881;28;8787;-70
2023/09/02 10:12:52;;;;;;;;;6.00;6.00;;;;;;;;5111964;28;8772;-70
2023/09/02 10:15:24;;;;;;;;;5.75;5.75;;;;;;;;5093143;28;8807;-70
2023/09/02 10:17:50;;;;;;;;;6.20;5.00;;;;;;;;5111563;28;8790;-70
2023/09/02 10:20:15;;;;;;;;;5.75;4.50;;;;;;;;5111776;28;8788;-69
2023/09/02 10:22:43;;;;;;;;;4.50;4.50;;;;;;;;5111510;28;8788;-70
2023/09/02 10:25:18;;;;;;;;;5.00;5.00;;;;;;;;5110319;28;8772;-69
2023/09/02 10:27:47;;;;;;;;;5.40;5.40;;;;;;;;5111501;28;9511;-70
2023/09/02 10:30:18;;;;;;;;;5.20;3.80;;;;;;;;5111094;28;8776;-68
2023/09/02 10:32:49;;;;;;;;;4.60;4.60;;;;;;;;5111151;28;8795;-69
2023/09/02 10:35:18;;;;;;;;;7.60;6.60;;;;;;;;5093080;28;8812;-70
2023/09/02 10:37:47;;;;;;;;;3.00;2.20;;;;;;;;5111388;28;9570;-70
2023/09/02 10:40:18;;;;;;;;;4.20;4.20;;;;;;;;5110913;28;8958;-70
2023/09/02 10:42:44;;;;;;;;;5.40;3.00;;;;;;;;5110863;28;9523;-71
2023/09/02 10:45:10;;;;;;;;;3.40;3.40;;;;;;;;5110806;28;8799;-70
2023/09/02 10:47:36;;;;;;;;;3.00;3.00;;;;;;;;5110797;28;9542;-69
2023/09/02 10:50:02;;;;;;;;;4.00;4.00;;;;;;;;5092931;28;8800;-76
2023/09/02 10:52:27;;;;;;;;;3.00;3.00;;;;;;;;5111435;28;8808;-75
2023/09/02 10:55:02;;;;;;;;;3.00;3.00;;;;;;;;5111476;28;8783;-78
2023/09/02 10:57:32;;;;;;;;;4.80;2.40;;;;;;;;5106435;28;8818;-79
2023/09/02 11:00:16;;;;;;;;;5.20;3.80;;;;;;;;5090424;28;8924;-74
2023/09/02 11:02:42;;;;;;;;;5.00;3.20;;;;;;;;5106487;28;8819;-76
2023/09/02 11:05:07;;;;;;;;;2.00;2.00;;;;;;;;5111054;28;8836;-76
2023/09/02 11:07:35;;;;;;;;;5.00;4.00;;;;;;;;5110624;28;11372;-78
2023/09/02 11:10:01;;;;;;;;;4.00;3.00;;;;;;;;5111013;28;9521;-78
2023/09/02 11:12:27;;;;;;;;;5.00;5.00;;;;;;;;5110404;27;9625;-76
2023/09/02 11:15:08;;;;;;;;;3.00;3.00;;;;;;;;5110793;28;8784;-76
2023/09/02 11:17:37;;;;;;;;;5.00;5.00;;;;;;;;5110196;28;9557;-74
2023/09/02 11:20:03;;;;;;;;;4.00;3.00;;;;;;;;5110319;28;9610;-73
2023/09/02 11:22:47;;;;;;;;;3.25;3.00;;;;;;;;5110264;28;8812;-77
2023/09/02 11:25:28;;;;;;;;;5.50;4.00;;;;;;;;5110124;28;8791;-73
2023/09/02 11:27:55;;;;;;;;;3.75;3.75;;;;;;;;5109896;28;9410;-76
2023/09/02 11:30:21;;;;;;;;;3.75;3.00;;;;;;;;5109957;28;10222;-86
2023/09/02 11:32:46;;;;;;;;;4.00;4.00;;;;;;;;5110030;28;8926;-76
2023/09/02 11:35:15;;;;;;;;;4.67;4.67;;;;;;;;5109176;27;9475;-76
2023/09/02 11:37:40;;;;;;;;;3.75;3.75;;;;;;;;5091716;28;8822;-79
2023/09/02 11:40:18;;;;;;;;;3.00;3.00;;;;;;;;5109830;28;8789;-76
2023/09/02 11:42:47;;;;;;;;;4.00;3.25;;;;;;;;5109922;28;8792;-78
2023/09/02 11:45:16;;;;;;;;;5.00;5.00;;;;;;;;5108618;27;8842;-79
2023/09/02 11:47:41;;;;;;;;;5.75;5.00;;;;;;;;5091320;27;8778;-78
2023/09/02 11:50:13;;;;;;;;;4.00;4.00;;;;;;;;5113879;27;8834;-80
2023/09/02 11:52:39;;;;;;;;;4.25;4.00;;;;;;;;5110689;28;8812;-79
2023/09/02 11:55:11;;;;;;;;;6.00;4.67;;;;;;;;5110091;27;8846;-80
2023/09/02 11:57:37;;;;;;;;;3.25;2.75;;;;;;;;5109458;28;8890;-76
2023/09/02 12:00:02;;;;;;;;;4.00;4.00;;;;;;;;5109097;28;8792;-72
2023/09/02 12:02:28;;;;;;;;;7.00;7.00;;;;;;;;5109391;28;8823;-71
2023/09/02 12:04:53;;;;;;;;;2.33;2.33;;;;;;;;5109010;28;8776;-69
2023/09/02 12:07:20;;;;;;;;;6.33;6.00;;;;;;;;5109954;28;8784;-69
2023/09/02 12:09:46;;;;;;;;;18.25;15.25;;;;;;;;5109899;28;8796;-69
2023/09/02 12:12:12;;;;;;;;;5.33;4.67;;;;;;;;5110225;28;8800;-71
2023/09/02 12:14:44;;;;;;;;;12.75;12.75;;;;;;;;5088536;28;8832;-72
2023/09/02 12:17:09;;;;;;;;;18.50;16.00;;;;;;;;5091823;28;8811;-73
2023/09/02 12:19:34;;;;;;;;;11.00;9.67;;;;;;;;5109999;28;8859;-76
2023/09/02 12:22:00;;;;;;;;;25.33;24.33;;;;;;;;5091913;28;8808;-73
2023/09/02 12:24:26;;;;;;;;;16.00;16.00;;;;;;;;5109975;28;9699;-74
2023/09/02 12:26:51;;;;;;;;;21.00;17.50;;;;;;;;5109868;28;8882;-73
2023/09/02 12:29:17;;;;;;;;;18.00;18.00;;;;;;;;5102487;28;8796;-73
2023/09/02 12:31:49;;;;;;;;;12.67;12.67;;;;;;;;5099003;28;8948;-71
2023/09/02 12:34:14;;;;;;;;;8.25;8.25;;;;;;;;5098569;28;8805;-71
2023/09/02 12:36:40;;;;;;;;;16.33;15.33;;;;;;;;5099185;28;8797;-72
2023/09/02 12:39:05;;;;;;;;;7.33;7.33;;;;;;;;5100048;28;8828;-72
2023/09/02 12:41:37;;;;;;;;;5.67;5.67;;;;;;;;5098336;28;8811;-72
2023/09/02 12:44:12;;;;;;;;;14.67;14.00;;;;;;;;5104051;28;9526;-75
2023/09/02 12:46:38;;;;;;;;;14.25;13.75;;;;;;;;5098842;28;8925;-74
2023/09/02 12:49:03;;;;;;;;;5.67;5.67;;;;;;;;5101137;28;8772;-74
2023/09/02 12:51:29;;;;;;;;;12.33;11.33;;;;;;;;5085580;28;8823;-74
2023/09/02 12:53:55;;;;;;;;;6.50;6.50;;;;;;;;5113108;28;8792;-73
2023/09/02 12:56:20;;;;;;;;;8.00;8.00;;;;;;;;5113437;28;8772;-73
2023/09/02 12:58:45;;;;;;;;;21.33;19.67;;;;;;;;5109448;28;8802;-72
2023/09/02 13:01:14;;;;;;;;;7.67;7.00;;;;;;;;5101372;28;8810;-71
2023/09/02 13:03:40;;;;;;;;;6.50;6.50;;;;;;;;5102814;28;8792;-70
2023/09/02 13:06:06;;;;;;;;;5.67;4.00;;;;;;;;5102865;28;8977;-71
2023/09/02 13:08:31;;;;;;;;;5.00;5.00;;;;;;;;5100920;28;8796;-71
2023/09/02 13:10:56;;;;;;;;;4.00;4.00;;;;;;;;5102842;28;9540;-70
2023/09/02 13:13:22;;;;;;;;;15.33;15.00;;;;;;;;5102629;28;8794;-71
2023/09/02 13:15:47;;;;;;;;;8.33;8.33;;;;;;;;5102539;28;8897;-70
2023/09/02 13:18:12;;;;;;;;;12.00;12.00;;;;;;;;5100769;28;8786;-70
2023/09/02 13:20:38;;;;;;;;;17.00;15.00;;;;;;;;5102390;28;8807;-70
2023/09/02 13:23:04;;;;;;;;;6.00;6.00;;;;;;;;5102102;28;9686;-69
2023/09/02 13:25:29;;;;;;;;;6.75;6.00;;;;;;;;5100264;28;8782;-71
2023/09/02 13:27:55;;;;;;;;;13.00;13.00;;;;;;;;5092069;28;8990;-71
2023/09/02 13:30:22;;;;;;;;;14.33;14.33;;;;;;;;5091911;28;8802;-74
2023/09/02 13:32:47;;;;;;;;;16.50;16.50;;;;;;;;5092102;28;8794;-70
2023/09/02 13:35:16;;;;;;;;;15.67;15.00;;;;;;;;5092159;28;8813;-75
2023/09/02 13:37:43;;;;;;;;;7.75;7.50;;;;;;;;5092491;28;8790;-79
2023/09/02 13:40:14;;;;;;;;;13.00;11.50;;;;;;;;5092084;28;9027;-78
2023/09/02 13:42:40;;;;;;;;;5.50;5.50;;;;;;;;5097089;28;8780;-75
2023/09/02 13:45:14;;;;;;;;;13.00;13.00;;;;;;;;5112587;28;8804;-75
2023/09/02 13:47:47;;;;;;;;;7.00;7.00;;;;;;;;5112379;28;11537;-75
2023/09/02 13:50:13;;;;;;;;;11.00;9.00;;;;;;;;5112448;28;8799;-75
2023/09/02 13:52:38;;;;;;;;;13.75;12.75;;;;;;;;5112170;28;8839;-75
2023/09/02 13:55:04;;;;;;;;;11.00;9.00;;;;;;;;5111937;28;8853;-72
2023/09/02 13:57:29;;;;;;;;;16.33;15.00;;;;;;;;5111781;28;8891;-72
2023/09/02 13:59:56;;;;;;;;;15.33;15.00;;;;;;;;5093509;28;8811;-73
2023/09/02 14:02:22;;;;;;;;;10.25;10.00;;;;;;;;5111958;28;8796;-72
2023/09/02 14:04:47;;;;;;;;;12.50;12.50;;;;;;;;5093872;28;8833;-72
2023/09/02 14:07:14;;;;;;;;;8.00;8.00;;;;;;;;5112066;28;9643;-73
2023/09/02 14:09:42;;;;;;;;;13.75;13.75;;;;;;;;5106304;28;8770;-70
2023/09/02 14:12:21;;;;;;;;;16.00;12.00;;;;;;;;5095305;28;9012;-77
2023/09/02 14:14:46;;;;;;;;;7.50;7.50;;;;;;;;5112530;28;8951;-83
2023/09/02 14:17:12;;;;;;;;;16.67;16.67;;;;;;;;5111932;28;8768;-69
2023/09/02 14:19:38;;;;;;;;;21.67;19.00;;;;;;;;5111340;28;8792;-81
2023/09/02 14:22:03;;;;;;;;;5.33;5.33;;;;;;;;5111970;28;8792;-75
2023/09/02 14:24:28;;;;;;;;;15.00;13.33;;;;;;;;5111828;28;8768;-77
2023/09/02 14:27:10;;;;;;;;;8.67;8.67;;;;;;;;5111690;28;9534;-74
2023/09/02 14:29:36;;;;;;;;;6.25;5.50;;;;;;;;5111883;28;8815;-75
2023/09/02 14:32:02;;;;;;;;;13.00;12.67;;;;;;;;5111396;28;8820;-77
2023/09/02 14:34:27;;;;;;;;;8.00;8.00;;;;;;;;5111588;28;8842;-78
2023/09/02 14:36:52;;;;;;;;;6.67;6.33;;;;;;;;5111057;28;8815;-77
2023/09/02 14:39:18;;;;;;;;;5.00;5.00;;;;;;;;5111189;28;8811;-71
2023/09/02 14:41:44;;;;;;;;;7.00;6.33;;;;;;;;5111287;28;8824;-74
2023/09/02 14:44:09;;;;;;;;;13.33;12.00;;;;;;;;5092763;28;8836;-82
2023/09/02 14:46:35;;;;;;;;;20.33;19.00;;;;;;;;5111011;28;8811;-74
2023/09/02 14:49:00;;;;;;;;;13.33;11.33;;;;;;;;5110564;28;8815;-75
2023/09/02 14:51:26;;;;;;;;;6.67;5.33;;;;;;;;5110849;28;9240;-70
2023/09/02 14:53:51;;;;;;;;;6.00;6.00;;;;;;;;5110635;28;8788;-77
2023/09/02 14:56:16;;;;;;;;;6.00;6.00;;;;;;;;5110698;28;8780;-78
2023/09/02 14:58:42;;;;;;;;;12.00;11.00;;;;;;;;5110446;28;8902;-71
2023/09/02 15:01:11;;;;;;;;;17.67;16.33;;;;;;;;5091866;28;8839;-82
2023/09/02 15:03:38;;;;;;;;;10.25;8.25;;;;;;;;5110451;28;8938;-78
2023/09/02 15:06:04;;;;;;;;;7.75;7.00;;;;;;;;5110448;28;8788;-78
2023/09/02 15:08:31;;;;;;;;;7.00;7.00;;;;;;;;5110314;28;8938;-78
2023/09/02 15:10:59;;;;;;;;;10.25;10.25;;;;;;;;5109247;28;8838;-75
2023/09/02 15:13:26;;;;;;;;;5.50;5.25;;;;;;;;5109549;28;8792;-78
2023/09/02 15:15:54;;;;;;;;;6.00;4.75;;;;;;;;5110528;28;8884;-77
2023/09/02 15:18:25;;;;;;;;;8.50;8.50;;;;;;;;5109989;28;8778;-66
2023/09/02 15:20:50;;;;;;;;;6.25;6.25;;;;;;;;5109810;28;8789;-67
2023/09/02 15:23:15;;;;;;;;;6.33;5.67;;;;;;;;5093443;28;8790;-66
2023/09/02 15:25:41;;;;;;;;;6.00;5.33;;;;;;;;5089619;28;8801;-71
2023/09/02 15:28:09;;;;;;;;;6.00;6.00;;;;;;;;5091180;28;8817;-68
2023/09/02 15:30:34;;;;;;;;;5.75;5.00;;;;;;;;5091120;28;8800;-69
2023/09/02 15:33:05;;;;;;;;;14.33;11.67;;;;;;;;5106492;28;8811;-72
2023/09/02 15:35:37;;;;;;;;;4.75;4.75;;;;;;;;5092449;28;8798;-71
2023/09/02 15:38:03;;;;;;;;;21.00;18.67;;;;;;;;5089877;28;8774;-70
2023/09/02 15:40:32;;;;;;;;;9.00;9.00;;;;;;;;5088808;28;9095;-70
2023/09/02 15:43:06;;;;;;;;;19.50;16.25;;;;;;;;5089861;28;8828;-70
2023/09/02 15:45:31;;;;;;;;;5.75;5.00;;;;;;;;5110140;28;8779;-70
